createdAt,value
2022-08-04T00:02:18.813Z,48.63
2022-08-04T00:05:30.740Z,48.48
2022-08-04T00:08:45.661Z,48.56
2022-08-04T00:11:49.562Z,48.53
2022-08-04T00:14:58.041Z,48.81
2022-08-04T00:18:05.193Z,48.93
2022-08-04T00:21:12.620Z,49.36
2022-08-04T00:24:19.829Z,49.31
2022-08-04T00:27:22.444Z,49.72
2022-08-04T00:30:25.259Z,50.02
2022-08-04T00:33:27.570Z,50.61
2022-08-04T00:36:30.831Z,49.94
2022-08-04T00:39:34.575Z,50.09
2022-08-04T00:42:59.207Z,49.21
2022-08-04T00:46:20.551Z,49.10
2022-08-04T00:49:38.150Z,49.90
2022-08-04T00:52:46.429Z,49.38
2022-08-04T00:56:03.642Z,49.86
2022-08-04T01:00:00.310Z,50.24
2022-08-04T01:03:33.372Z,51.36
2022-08-04T01:07:07.655Z,50.42
2022-08-04T01:10:23.163Z,50.52
2022-08-04T01:13:38.992Z,50.73
2022-08-04T01:16:52.173Z,50.60
2022-08-04T01:20:02.394Z,51.14
2022-08-04T01:23:29.820Z,51.27
2022-08-04T01:26:57.325Z,51.13
2022-08-04T01:30:01.818Z,51.32
2022-08-04T01:33:08.921Z,51.12
2022-08-04T01:36:12.829Z,51.29
2022-08-04T01:39:34.444Z,51.79
2022-08-04T01:42:37.377Z,52.00
2022-08-04T01:45:41.445Z,52.14
2022-08-04T01:48:53.191Z,52.04
2022-08-04T01:51:56.598Z,52.18
2022-08-04T01:55:01.193Z,51.88
2022-08-04T01:58:05.549Z,51.84
2022-08-04T02:01:10.257Z,51.88
2022-08-04T02:04:23.308Z,52.00
2022-08-04T02:07:32.147Z,51.77
2022-08-04T02:11:25.887Z,52.47
2022-08-04T02:14:50.187Z,52.81
2022-08-04T02:18:01.240Z,53.19
2022-08-04T02:21:03.742Z,53.30
2022-08-04T02:24:10.053Z,53.47
2022-08-04T02:27:14.952Z,53.57
2022-08-04T02:30:19.158Z,53.78
2022-08-04T02:33:26.941Z,53.66
2022-08-04T02:36:40.721Z,53.81
2022-08-04T02:39:48.777Z,53.39
2022-08-04T02:42:53.764Z,53.25
2022-08-04T02:45:57.362Z,53.40
2022-08-04T02:49:05.927Z,53.42
2022-08-04T02:52:10.872Z,53.60
2022-08-04T02:55:14.073Z,53.81
2022-08-04T02:58:20.466Z,53.25
2022-08-04T03:01:23.844Z,53.16
2022-08-04T03:04:28.770Z,52.69
2022-08-04T03:08:08.100Z,52.82
2022-08-04T03:11:25.200Z,53.09
2022-08-04T03:15:01.590Z,53.12
2022-08-04T03:18:34.637Z,53.26
2022-08-04T03:22:03.404Z,53.60
2022-08-04T03:25:15.845Z,53.88
2022-08-04T03:28:33.506Z,53.74
2022-08-04T03:31:54.209Z,53.97
2022-08-04T03:35:28.420Z,54.18
2022-08-04T03:38:36.642Z,53.92
2022-08-04T03:41:51.668Z,53.25
2022-08-04T03:45:41.248Z,53.20
2022-08-04T03:49:04.043Z,53.08
2022-08-04T03:52:43.848Z,53.12
2022-08-04T03:56:29.846Z,53.34
2022-08-04T03:59:40.758Z,58.51
2022-08-04T04:03:09.610Z,53.55
2022-08-04T04:06:34.413Z,56.04
2022-08-04T04:09:57.201Z,52.57
2022-08-04T04:13:29.936Z,52.31
2022-08-04T04:16:59.486Z,55.88
2022-08-04T04:20:24.109Z,52.19
2022-08-04T04:23:49.344Z,49.87
2022-08-04T04:27:16.674Z,48.46
2022-08-04T04:31:13.924Z,46.79
2022-08-04T04:34:16.206Z,49.26
2022-08-04T04:37:31.316Z,45.79
2022-08-04T04:40:59.900Z,48.94
2022-08-04T04:44:30.822Z,48.67
2022-08-04T04:48:10.678Z,47.97
2022-08-04T04:51:19.259Z,48.50
2022-08-04T04:54:39.379Z,46.34
2022-08-04T04:57:53.602Z,49.03
2022-08-04T05:01:42.225Z,50.02
2022-08-04T05:05:06.735Z,48.74
2022-08-04T05:08:44.355Z,48.93
2022-08-04T05:14:30.842Z,48.01
2022-08-04T05:15:49.548Z,47.73
2022-08-04T05:19:12.413Z,44.15
2022-08-04T05:22:26.878Z,43.43
2022-08-04T05:25:37.396Z,42.72
2022-08-04T05:28:43.087Z,41.91
2022-08-04T05:31:51.115Z,41.20
2022-08-04T05:35:00.213Z,40.42
2022-08-04T05:38:03.976Z,40.06
2022-08-04T05:41:09.209Z,40.20
2022-08-04T05:44:11.918Z,40.78
2022-08-04T05:47:15.470Z,39.42
2022-08-04T05:50:18.617Z,39.53
2022-08-04T05:53:21.741Z,30.79
2022-08-04T05:56:24.745Z,27.13
2022-08-04T05:59:29.226Z,25.73
2022-08-04T06:02:32.483Z,23.40
2022-08-04T06:05:35.458Z,22.16
2022-08-04T06:08:38.979Z,20.12
2022-08-04T06:12:03.238Z,19.97
2022-08-04T06:15:07.942Z,19.95
2022-08-04T06:18:32.894Z,20.74
2022-08-04T06:21:38.767Z,21.18
2022-08-04T06:24:45.121Z,19.33
2022-08-04T06:27:49.786Z,18.78
2022-08-04T06:30:55.078Z,17.67
2022-08-04T06:33:57.716Z,17.61
2022-08-04T06:37:00.457Z,16.95
2022-08-04T06:40:04.174Z,16.96
2022-08-04T06:43:27.795Z,16.20
2022-08-04T06:46:34.229Z,15.67
2022-08-04T06:51:23.028Z,13.80
2022-08-04T06:53:01.045Z,14.33
2022-08-04T06:56:05.276Z,14.20
2022-08-04T06:59:08.423Z,15.17
2022-08-04T07:02:20.864Z,15.18
2022-08-04T07:05:23.698Z,14.88
2022-08-04T07:08:27.129Z,13.59
2022-08-04T07:11:39.478Z,14.07
2022-08-04T07:14:48.669Z,14.10
2022-08-04T07:17:52.612Z,15.00
2022-08-04T07:20:55.140Z,14.47
2022-08-04T07:23:57.181Z,13.29
2022-08-04T07:27:00.209Z,13.96
2022-08-04T07:30:06.127Z,15.87
2022-08-04T07:33:09.060Z,20.06
2022-08-04T07:36:12.538Z,22.89
2022-08-04T07:39:27.743Z,22.93
2022-08-04T07:42:31.894Z,24.99
2022-08-04T07:45:34.838Z,26.41
2022-08-04T07:48:37.005Z,27.82
2022-08-04T07:51:40.471Z,29.46
2022-08-04T07:54:43.094Z,29.86
2022-08-04T07:57:45.564Z,28.99
2022-08-04T08:00:48.094Z,28.22
2022-08-04T08:03:53.319Z,28.24
2022-08-04T08:06:57.702Z,28.52
2022-08-04T08:10:39.786Z,29.68
2022-08-04T08:13:43.962Z,30.67
2022-08-04T08:16:46.982Z,30.03
2022-08-04T08:19:49.109Z,29.76
2022-08-04T08:22:51.611Z,31.02
2022-08-04T08:25:53.792Z,30.76
2022-08-04T08:28:56.212Z,29.53
2022-08-04T08:32:05.536Z,30.01
2022-08-04T08:35:10.415Z,30.74
2022-08-04T08:38:15.716Z,29.92
2022-08-04T08:41:51.948Z,31.99
2022-08-04T08:45:17.690Z,34.60
2022-08-04T08:48:29.732Z,30.25
2022-08-04T08:51:53.510Z,30.52
2022-08-04T08:55:20.799Z,30.29
2022-08-04T08:58:41.415Z,29.51
2022-08-04T09:02:02.525Z,29.56
2022-08-04T09:05:14.608Z,29.22
2022-08-04T09:09:05.518Z,29.50
2022-08-04T09:12:39.329Z,29.29
2022-08-04T09:15:54.306Z,29.56
2022-08-04T09:19:04.479Z,26.98
2022-08-04T09:22:13.597Z,25.54
2022-08-04T09:25:28.567Z,23.11
2022-08-04T09:28:58.317Z,21.33
2022-08-04T09:32:28.174Z,19.86
2022-08-04T09:35:42.527Z,17.77
2022-08-04T09:38:58.430Z,18.04
2022-08-04T09:42:29.261Z,17.37
2022-08-04T09:46:03.592Z,15.50
2022-08-04T09:49:21.246Z,17.64
2022-08-04T09:52:47.581Z,16.73
2022-08-04T09:56:03.623Z,16.21
2022-08-04T09:59:22.354Z,15.64
2022-08-04T10:02:29.123Z,16.46
2022-08-04T10:06:00.098Z,16.93
2022-08-04T10:09:14.490Z,16.37
2022-08-04T10:12:41.681Z,14.09
2022-08-04T10:15:57.345Z,14.00
2022-08-04T10:19:26.518Z,15.46
2022-08-04T10:22:55.931Z,15.56
2022-08-04T10:26:11.406Z,15.39
2022-08-04T10:29:26.613Z,16.07
2022-08-04T10:32:43.829Z,16.32
2022-08-04T10:35:52.467Z,16.64
2022-08-04T10:39:07.380Z,15.79
2022-08-04T10:42:27.372Z,13.63
2022-08-04T10:45:57.905Z,14.83
2022-08-04T10:49:21.688Z,15.92
2022-08-04T10:52:35.910Z,14.88
2022-08-04T10:56:06.450Z,14.44
2022-08-04T10:59:16.084Z,15.30
2022-08-04T11:02:36.215Z,17.05
2022-08-04T11:05:48.612Z,15.66
2022-08-04T11:08:55.333Z,16.08
2022-08-04T11:12:16.382Z,16.45
2022-08-04T11:15:30.145Z,15.71
2022-08-04T11:19:10.149Z,14.70
2022-08-04T11:22:23.332Z,14.47
2022-08-04T11:25:32.610Z,15.02
2022-08-04T11:29:12.334Z,16.08
2022-08-04T11:32:23.022Z,14.84
2022-08-04T11:35:32.470Z,16.34
2022-08-04T11:38:52.013Z,16.63
2022-08-04T11:42:26.246Z,16.18
2022-08-04T11:45:39.715Z,17.56
2022-08-04T11:49:16.975Z,16.20
2022-08-04T11:52:21.870Z,16.19
2022-08-04T11:55:27.134Z,15.16
2022-08-04T11:58:30.731Z,16.51
2022-08-04T12:02:06.370Z,15.88
2022-08-04T12:05:10.063Z,15.96
2022-08-04T12:08:47.908Z,17.30
2022-08-04T12:12:13.702Z,16.53
2022-08-04T12:15:31.381Z,16.60
2022-08-04T12:18:40.387Z,16.59
2022-08-04T12:21:48.118Z,16.26
2022-08-04T12:25:03.911Z,15.49
2022-08-04T12:28:15.756Z,15.03
2022-08-04T12:31:26.510Z,16.40
2022-08-04T12:34:54.965Z,16.79
2022-08-04T12:38:04.596Z,15.94
2022-08-04T12:41:08.215Z,15.27
2022-08-04T12:44:36.914Z,16.00
2022-08-04T12:47:38.031Z,16.20
2022-08-04T12:50:42.161Z,18.20
2022-08-04T12:53:51.027Z,17.85
2022-08-04T12:56:58.247Z,17.42
2022-08-04T13:00:00.402Z,16.12
2022-08-04T13:03:10.211Z,15.95
2022-08-04T13:06:19.693Z,16.56
2022-08-04T13:09:30.271Z,17.02
2022-08-04T13:12:34.147Z,18.86
2022-08-04T13:15:47.216Z,17.95
2022-08-04T13:18:59.938Z,18.43
2022-08-04T13:22:08.389Z,20.02
2022-08-04T13:25:18.006Z,19.46
2022-08-04T13:28:34.984Z,19.73
2022-08-04T13:31:37.835Z,19.57
2022-08-04T13:34:42.746Z,19.00
2022-08-04T13:37:54.505Z,20.17
2022-08-04T13:40:59.912Z,20.17
2022-08-04T13:44:18.306Z,20.51
2022-08-04T13:47:30.402Z,20.89
2022-08-04T13:50:33.573Z,20.58
2022-08-04T13:53:37.984Z,20.21
2022-08-04T13:56:47.017Z,20.96
2022-08-04T13:59:54.671Z,20.91
2022-08-04T14:03:03.436Z,20.27
2022-08-04T14:06:25.878Z,20.17
2022-08-04T14:09:34.821Z,20.97
2022-08-04T14:12:47.284Z,20.74
2022-08-04T14:16:02.660Z,21.22
2022-08-04T14:19:06.746Z,21.02
2022-08-04T14:22:27.532Z,21.02
2022-08-04T14:25:35.764Z,21.57
2022-08-04T14:29:25.578Z,21.75
2022-08-04T14:32:13.879Z,21.69
2022-08-04T14:35:50.522Z,21.43
2022-08-04T14:38:57.360Z,21.31
2022-08-04T14:42:02.904Z,22.13
2022-08-04T14:45:05.858Z,22.02
2022-08-04T14:48:11.852Z,22.49
2022-08-04T14:51:15.171Z,21.95
2022-08-04T14:54:25.484Z,22.44
2022-08-04T14:57:27.931Z,22.45
2022-08-04T15:00:32.800Z,23.32
2022-08-04T15:03:39.126Z,22.20
2022-08-04T15:06:53.430Z,22.13
2022-08-04T15:09:56.340Z,22.09
2022-08-04T15:12:59.110Z,23.08
2022-08-04T15:16:07.898Z,22.57
2022-08-04T15:19:10.643Z,22.89
2022-08-04T15:22:17.275Z,22.37
2022-08-04T15:25:20.263Z,23.45
2022-08-04T15:28:25.206Z,22.96
2022-08-04T15:32:06.308Z,22.62
2022-08-04T15:34:52.462Z,22.59
2022-08-04T15:37:57.494Z,23.24
2022-08-04T15:41:08.034Z,23.20
2022-08-04T15:44:35.173Z,22.88
2022-08-04T15:47:37.725Z,23.53
2022-08-04T15:51:02.851Z,23.15
2022-08-04T15:54:08.726Z,22.84
2022-08-04T15:57:58.184Z,23.32
2022-08-04T16:01:00.523Z,23.34
2022-08-04T16:04:21.647Z,23.78
2022-08-04T16:07:57.327Z,23.81
2022-08-04T16:10:59.874Z,23.19
2022-08-04T16:14:01.969Z,23.45
2022-08-04T16:17:15.335Z,23.47
2022-08-04T16:20:18.477Z,23.94
2022-08-04T16:24:02.141Z,23.69
2022-08-04T16:27:12.558Z,23.80
2022-08-04T16:30:15.273Z,24.45
2022-08-04T16:33:17.589Z,23.86
2022-08-04T16:36:58.374Z,23.73
2022-08-04T16:40:34.700Z,23.97
2022-08-04T16:43:38.162Z,23.94
2022-08-04T16:47:01.448Z,24.02
2022-08-04T16:50:05.446Z,24.05
2022-08-04T16:53:14.474Z,24.55
2022-08-04T16:56:35.242Z,24.57
2022-08-04T16:59:38.209Z,25.17
2022-08-04T17:02:41.140Z,26.28
2022-08-04T17:05:43.555Z,26.69
2022-08-04T17:08:48.818Z,26.98
2022-08-04T17:11:53.553Z,25.34
2022-08-04T17:14:57.427Z,25.33
2022-08-04T17:18:24.344Z,25.20
2022-08-04T17:21:31.531Z,26.65
2022-08-04T17:24:36.771Z,26.99
2022-08-04T17:28:09.587Z,27.67
2022-08-04T17:31:06.552Z,28.62
2022-08-04T17:34:19.489Z,28.55
2022-08-04T17:37:38.947Z,28.91
2022-08-04T17:41:19.448Z,29.26
2022-08-04T17:44:38.959Z,30.19
2022-08-04T17:47:52.502Z,30.12
2022-08-04T17:50:54.628Z,30.34
2022-08-04T17:54:03.099Z,30.30
2022-08-04T17:57:22.676Z,30.34
2022-08-04T18:00:25.128Z,30.70
2022-08-04T18:03:35.851Z,31.01
2022-08-04T18:06:38.353Z,31.20
2022-08-04T18:09:57.842Z,31.11
2022-08-04T18:13:15.736Z,31.60
2022-08-04T18:16:22.222Z,31.77
2022-08-04T18:19:25.466Z,31.97
2022-08-04T18:22:28.780Z,32.29
2022-08-04T18:25:51.180Z,32.74
2022-08-04T18:28:53.590Z,32.93
2022-08-04T18:31:55.731Z,32.93
2022-08-04T18:35:05.423Z,33.00
2022-08-04T18:38:11.422Z,32.80
2022-08-04T18:41:27.715Z,33.04
2022-08-04T18:44:31.587Z,33.63
2022-08-04T18:51:08.684Z,35.32
2022-08-04T18:54:13.943Z,34.50
2022-08-04T18:57:32.717Z,35.12
2022-08-04T19:00:46.170Z,35.31
2022-08-04T19:03:54.488Z,34.74
2022-08-04T19:10:26.731Z,35.35
2022-08-04T19:13:34.804Z,35.79
2022-08-04T19:16:37.969Z,36.19
2022-08-04T19:19:47.747Z,35.77
2022-08-04T19:24:29.531Z,36.57
2022-08-04T19:26:27.942Z,37.39
2022-08-04T19:32:53.047Z,38.25
2022-08-04T19:35:55.194Z,38.56
2022-08-04T19:38:59.057Z,38.37
2022-08-04T19:42:04.320Z,38.51
2022-08-04T19:45:15.952Z,39.25
2022-08-04T19:48:20.165Z,38.69
2022-08-04T19:51:22.776Z,38.24
2022-08-04T19:54:30.079Z,38.14
2022-08-04T19:57:35.339Z,37.79
2022-08-04T20:00:40.563Z,37.96
2022-08-04T20:04:10.407Z,37.94
2022-08-04T20:07:14.203Z,38.19
2022-08-04T20:10:17.309Z,38.47
2022-08-04T20:13:37.213Z,38.68
2022-08-04T20:16:40.269Z,38.68
2022-08-04T20:19:42.576Z,38.80
2022-08-04T20:22:54.034Z,38.56
2022-08-04T20:25:56.280Z,38.84
2022-08-04T20:28:58.735Z,39.62
2022-08-04T20:32:05.362Z,39.40
2022-08-04T20:35:08.768Z,39.77
2022-08-04T20:38:33.080Z,39.94
2022-08-04T20:41:37.181Z,40.58
2022-08-04T20:44:42.377Z,40.72
2022-08-04T20:47:53.255Z,40.81
2022-08-04T20:50:56.870Z,41.03
2022-08-04T20:53:59.996Z,41.11
2022-08-04T20:57:02.962Z,41.14
2022-08-04T21:00:08.167Z,41.35
2022-08-04T21:03:10.280Z,41.62
2022-08-04T21:06:12.692Z,41.75
2022-08-04T21:09:15.343Z,42.12
2022-08-04T21:12:27.560Z,41.89
2022-08-04T21:15:50.769Z,42.89
2022-08-04T21:18:53.240Z,42.17
2022-08-04T21:21:55.381Z,42.39
2022-08-04T21:24:58.072Z,42.74
2022-08-04T21:28:04.655Z,42.38
2022-08-04T21:31:11.261Z,42.77
2022-08-04T21:34:37.888Z,42.43
2022-08-04T21:37:58.027Z,42.66
2022-08-04T21:41:03.387Z,42.44
2022-08-04T21:44:08.732Z,43.00
2022-08-04T21:47:14.087Z,42.43
2022-08-04T21:50:30.585Z,42.94
2022-08-04T21:53:33.033Z,42.54
2022-08-04T21:56:35.949Z,41.89
2022-08-04T21:59:45.998Z,40.31
2022-08-04T22:02:53.592Z,39.37
2022-08-04T22:05:56.723Z,39.80
2022-08-04T22:08:58.975Z,40.89
2022-08-04T22:12:03.363Z,40.64
2022-08-04T22:15:22.889Z,39.68
2022-08-04T22:18:30.576Z,40.47
2022-08-04T22:21:32.814Z,40.92
2022-08-04T22:24:41.827Z,40.89
2022-08-04T22:28:03.737Z,41.47
2022-08-04T22:31:23.243Z,42.00
2022-08-04T22:34:27.823Z,41.91
2022-08-04T22:37:35.921Z,41.99
2022-08-04T22:40:38.711Z,41.24
2022-08-04T22:43:41.751Z,41.90
2022-08-04T22:46:43.953Z,42.15
2022-08-04T22:49:56.464Z,42.67
2022-08-04T22:53:10.258Z,40.91
2022-08-04T22:56:37.333Z,40.90
2022-08-04T22:59:43.238Z,38.85
2022-08-04T23:02:45.929Z,39.24
2022-08-04T23:05:50.641Z,40.71
2022-08-04T23:08:53.544Z,40.74
2022-08-04T23:12:15.259Z,41.18
2022-08-04T23:15:18.322Z,41.87
2022-08-04T23:18:20.492Z,41.73
2022-08-04T23:21:24.272Z,42.55
2022-08-04T23:24:30.050Z,42.36
2022-08-04T23:27:40.269Z,41.71
2022-08-04T23:30:47.185Z,42.60
2022-08-04T23:33:51.823Z,42.23
2022-08-04T23:36:55.333Z,42.71
2022-08-04T23:40:15.632Z,42.41
2022-08-04T23:43:20.103Z,42.06
2022-08-04T23:46:25.617Z,42.28
2022-08-04T23:49:42.255Z,42.52
2022-08-04T23:52:49.546Z,41.50
2022-08-04T23:55:51.914Z,42.14
2022-08-04T23:58:54.506Z,42.32
